UUEETNCM

Guest
Details From UUEE - Moscou Sheremetyevo
To TNCM - St Maarten - Princess Juliana Intl
Flight Number -
Tags Generated
Created
Modified
Stats Distance 4,854 nm / 8,989 km
Max Altitude 0 ft / 0 m
Waypoints 6
Social Downloads 3
Likes 0
Share VATSIM

Download

Looking for another format? Having issues loading an existing format? Contact us
Advertisement - Login to hide

Notes

Generated

Route

UUEE VANAG DND08 54N15 PJD TNCM

ID Type Via Altitude Latitude Longitude Leg Dist Tot Dist Heading (true) Name
O UUEE APT - 0 ft / 0 m 55.96979˚ 37.38673˚ - 0 nm - -
VANAG FIX - 0 ft / 0 m 57.55028˚ 24.72583˚ 426 nm 426 nm 288° / 277° -
DND08 FIX - 0 ft / 0 m 56.46211˚ -3.27675˚ 911 nm 1338 nm 278° / 254° -
54N15 FIX - 0 ft / 0 m 54.00000˚ -15.00000˚ 427 nm 1765 nm 255° / 245° -
PJD NDB - 0 ft / 0 m 18.03833˚ -63.11833˚ 3088 nm 4853 nm 245° / 214° ST MAARTEN NDB
O TNCM APT - 0 ft / 0 m 18.03937˚ -63.11961˚ 0 nm 4853 nm 310° / 310° -

Altitude Profile

Advertisement - Login to hide

Weather


0- 5 10 15 20 25 30 35+ Temperature / ° C

Clouds and Precipitation
Forecast for 2018-05-21 18:00 UTC. Updated 2 hours ago

Ground ~20,000 ft ~40,000 ft Winds

UUEE

Details ICAO UUEE (SVO)
Name Moscou Sheremetyevo
Region Russia
Timezone Europe/Moscow (UTC+3.0)
Stats Elevation 622 ft / 190 m (AMSL)
Location 55.972642° 37.414586°
Runways 2
Magnetic Variation 11.220° E

METAR

UUEE 211830Z 07005MPS CAVOK 13/06 Q1027 R06C/150062 R06R/150062 NOSIG

Decode

TAF

TAF UUEE 211700Z 2118/2218 08004MPS CAVOK TX22/2212Z TN08/2203Z BECMG 2200/2204 13005MPS

Decode

Departure Runways

ID Width Length Bearing (true) Bearing (mag) Surface Threshold Offset Overrun Length
07L 197 ft / 60 m 11,613 ft / 3,540 m 74.99° 63.77° Concrete 0 ft / 0 m 240 ft / 73 m
07R 197 ft / 60 m 12,127 ft / 3,696 m 75.03° 63.81° Concrete 0 ft / 0 m 235 ft / 72 m
25L 197 ft / 60 m 12,127 ft / 3,696 m 255.08° 243.86° Concrete 0 ft / 0 m 245 ft / 75 m
25R 197 ft / 60 m 11,613 ft / 3,540 m 255.04° 243.82° Concrete 0 ft / 0 m 245 ft / 75 m

TNCM

Details ICAO TNCM (SXM)
Name St Maarten - Princess Juliana Intl
Region Caribbean Netherlands, Aruba, Curaçao, Sint Maarten
Timezone Unknown (UTC+0.0)
Stats Elevation 12 ft / 4 m (AMSL)
Location 18.040889° -63.108974°
Runways 1
Magnetic Variation 14.337° W

METAR

TNCM 211800Z 08013KT 040V120 9999 SCT018 30/21 Q1016 A3001 NOSIG

Decode

TAF

TAF TNCM 211720Z 2118/2218 08015KT P6SM VCSH SCT018 FM212300 09008KT P6SM FEW018 FM221200 10012KT P6SM VCSH SCT018

Decode

Destination Runways

ID Width Length Bearing (true) Bearing (mag) Surface Threshold Offset Overrun Length
10 148 ft / 45 m 7,464 ft / 2,275 m 81.43° 95.77° Asphalt 0 ft / 0 m 151 ft / 46 m
28 148 ft / 45 m 7,464 ft / 2,275 m 261.44° 275.78° Asphalt 397 ft / 121 m 0 ft / 0 m

Popular Alternatives